Accueil
METAR-TAF:

METAR-TAF

Aéroports :

Marham, Angleterre

latitude: 52-39N, longitude: 000-34E, altitude: 23 m

Observation

Le bulletin a été fait il y a 30 minutes, à 11:50 UTC
Vent 5 kt de sud/sud-ouest
Température 24°C
Humidité 36%
Pression 1018 hPa
Visibilité 10 km ou plus
pas de nuages en-dessous de 1500 mètres et pas de cumulonimbus.

METAR: EGYM 181150Z 21005KT CAVOK 24/08 Q1018 BLU NOSIG

Heure: 13:20 (12:20 UTC)

Prévision

Le bulletin a été fait il y a 1 heure et 35 minutes, à 10:45 UTC
Prévision valable du 18 à 12 UTC au 18 à 21 UTC
Vent 5 kt de sud/sud-ouest
Visibilité 10 km ou plus
pas de nuages en-dessous de 1500 mètres et pas de cumulonimbus.
Evoluant progressivement
du 18 à 15 UTC au 18 à 18 UTC
Vent 10 kt de est

TAF: EGYM 181045Z 1812/1821 21005KT CAVOK BECMG 1815/1818 09010KT

Observations et prévisions météorologiques de plus de 4000 aéroports (messages METAR et TAF).

Les stations disponibles sont représentées par des disques jaunes et rouges sur la carte.

Passer la souris dessus pour voir le nom de la station.

Cliquer dessus pour voir les observations et prévisions météorologiques.

Pour changer de carte: cliquez sur les boutons verts avec une croix noire pour zoomer, sur le bouton vert avec un tiret pour effectuer un zoom arrière, ou sur les flèches vertes pour les cartes adjacentes.


METAR-TAF: